sensor_id;sensor_type;location;lat;lon;timestamp;P1;durP1;ratioP1;P2;durP2;ratioP2
2728;SDS011;1372;47.956;7.830;2022-09-13T00:02:05;1.10;;;1.00;;
2728;SDS011;1372;47.956;7.830;2022-09-13T00:04:35;1.00;;;1.00;;
2728;SDS011;1372;47.956;7.830;2022-09-13T00:07:04;0.90;;;0.90;;
2728;SDS011;1372;47.956;7.830;2022-09-13T00:09:33;0.93;;;0.90;;
2728;SDS011;1372;47.956;7.830;2022-09-13T00:12:04;1.70;;;1.00;;
2728;SDS011;1372;47.956;7.830;2022-09-13T00:14:33;0.90;;;0.90;;
2728;SDS011;1372;47.956;7.830;2022-09-13T00:17:02;0.90;;;0.90;;
2728;SDS011;1372;47.956;7.830;2022-09-13T00:19:32;1.33;;;0.90;;
2728;SDS011;1372;47.956;7.830;2022-09-13T00:22:01;1.00;;;1.00;;
2728;SDS011;1372;47.956;7.830;2022-09-13T00:24:33;1.17;;;1.00;;
2728;SDS011;1372;47.956;7.830;2022-09-13T00:27:01;2.20;;;1.60;;
2728;SDS011;1372;47.956;7.830;2022-09-13T00:29:30;0.80;;;0.80;;
2728;SDS011;1372;47.956;7.830;2022-09-13T00:32:00;2.10;;;1.00;;
2728;SDS011;1372;47.956;7.830;2022-09-13T00:34:29;1.57;;;0.87;;
2728;SDS011;1372;47.956;7.830;2022-09-13T00:37:01;1.17;;;1.00;;
2728;SDS011;1372;47.956;7.830;2022-09-13T00:39:29;1.10;;;1.00;;
2728;SDS011;1372;47.956;7.830;2022-09-13T00:41:59;1.20;;;0.90;;
2728;SDS011;1372;47.956;7.830;2022-09-13T00:44:48;1.67;;;0.90;;
2728;SDS011;1372;47.956;7.830;2022-09-13T00:47:24;1.40;;;1.30;;
2728;SDS011;1372;47.956;7.830;2022-09-13T00:50:03;1.20;;;1.10;;
2728;SDS011;1372;47.956;7.830;2022-09-13T00:52:39;1.10;;;1.00;;
2728;SDS011;1372;47.956;7.830;2022-09-13T00:55:13;2.20;;;1.40;;
2728;SDS011;1372;47.956;7.830;2022-09-13T00:57:49;1.00;;;1.00;;
2728;SDS011;1372;47.956;7.830;2022-09-13T01:00:20;1.27;;;1.17;;
2728;SDS011;1372;47.956;7.830;2022-09-13T01:03:09;1.40;;;1.13;;
2728;SDS011;1372;47.956;7.830;2022-09-13T01:05:45;1.37;;;0.73;;
2728;SDS011;1372;47.956;7.830;2022-09-13T01:08:20;0.93;;;0.90;;
2728;SDS011;1372;47.956;7.830;2022-09-13T01:11:10;3.07;;;1.00;;
2728;SDS011;1372;47.956;7.830;2022-09-13T01:13:47;1.30;;;1.20;;
2728;SDS011;1372;47.956;7.830;2022-09-13T01:16:19;2.70;;;1.30;;
2728;SDS011;1372;47.956;7.830;2022-09-13T01:18:48;1.30;;;1.20;;
2728;SDS011;1372;47.956;7.830;2022-09-13T01:21:23;1.30;;;1.00;;
2728;SDS011;1372;47.956;7.830;2022-09-13T01:28:22;1.47;;;1.37;;
2728;SDS011;1372;47.956;7.830;2022-09-13T01:31:34;1.07;;;1.07;;
2728;SDS011;1372;47.956;7.830;2022-09-13T01:34:10;1.87;;;1.30;;
2728;SDS011;1372;47.956;7.830;2022-09-13T01:36:57;1.07;;;1.00;;
2728;SDS011;1372;47.956;7.830;2022-09-13T01:39:47;1.70;;;1.17;;
2728;SDS011;1372;47.956;7.830;2022-09-13T01:42:34;1.80;;;1.20;;
2728;SDS011;1372;47.956;7.830;2022-09-13T01:45:20;2.57;;;1.00;;
2728;SDS011;1372;47.956;7.830;2022-09-13T01:47:57;2.33;;;1.63;;
2728;SDS011;1372;47.956;7.830;2022-09-13T01:50:51;1.30;;;1.20;;
2728;SDS011;1372;47.956;7.830;2022-09-13T01:53:30;1.53;;;1.43;;
2728;SDS011;1372;47.956;7.830;2022-09-13T01:56:04;1.67;;;1.23;;
2728;SDS011;1372;47.956;7.830;2022-09-13T01:58:59;1.20;;;1.10;;
2728;SDS011;1372;47.956;7.830;2022-09-13T02:01:34;1.30;;;1.20;;
2728;SDS011;1372;47.956;7.830;2022-09-13T02:04:08;4.03;;;1.30;;
2728;SDS011;1372;47.956;7.830;2022-09-13T02:07:02;0.93;;;0.93;;
2728;SDS011;1372;47.956;7.830;2022-09-13T02:09:39;1.30;;;1.20;;
2728;SDS011;1372;47.956;7.830;2022-09-13T02:12:15;1.43;;;1.33;;
2728;SDS011;1372;47.956;7.830;2022-09-13T02:15:07;1.57;;;1.33;;
2728;SDS011;1372;47.956;7.830;2022-09-13T02:17:45;1.50;;;1.40;;
2728;SDS011;1372;47.956;7.830;2022-09-13T02:20:23;1.13;;;1.03;;
2728;SDS011;1372;47.956;7.830;2022-09-13T02:22:59;1.43;;;1.33;;
2728;SDS011;1372;47.956;7.830;2022-09-13T02:25:33;2.40;;;1.40;;
2728;SDS011;1372;47.956;7.830;2022-09-13T02:28:05;1.40;;;1.30;;
2728;SDS011;1372;47.956;7.830;2022-09-13T02:30:38;1.93;;;1.23;;
2728;SDS011;1372;47.956;7.830;2022-09-13T02:33:17;1.50;;;1.40;;
2728;SDS011;1372;47.956;7.830;2022-09-13T02:35:52;1.70;;;1.47;;
2728;SDS011;1372;47.956;7.830;2022-09-13T02:38:28;2.80;;;1.20;;
2728;SDS011;1372;47.956;7.830;2022-09-13T02:41:02;1.50;;;1.40;;
2728;SDS011;1372;47.956;7.830;2022-09-13T02:43:39;2.50;;;1.50;;
2728;SDS011;1372;47.956;7.830;2022-09-13T02:46:14;1.40;;;1.30;;
2728;SDS011;1372;47.956;7.830;2022-09-13T02:48:59;1.13;;;0.90;;
2728;SDS011;1372;47.956;7.830;2022-09-13T02:51:42;1.50;;;1.40;;
2728;SDS011;1372;47.956;7.830;2022-09-13T02:54:23;1.63;;;1.07;;
2728;SDS011;1372;47.956;7.830;2022-09-13T02:56:58;1.37;;;1.27;;
2728;SDS011;1372;47.956;7.830;2022-09-13T02:59:38;1.33;;;1.23;;
2728;SDS011;1372;47.956;7.830;2022-09-13T03:02:07;2.10;;;1.27;;
2728;SDS011;1372;47.956;7.830;2022-09-13T03:04:42;1.60;;;1.40;;
2728;SDS011;1372;47.956;7.830;2022-09-13T03:07:13;1.60;;;1.50;;
2728;SDS011;1372;47.956;7.830;2022-09-13T03:09:45;1.50;;;1.40;;
2728;SDS011;1372;47.956;7.830;2022-09-13T03:12:32;1.40;;;1.30;;
2728;SDS011;1372;47.956;7.830;2022-09-13T03:15:23;1.40;;;1.30;;
2728;SDS011;1372;47.956;7.830;2022-09-13T03:18:11;1.33;;;1.23;;
2728;SDS011;1372;47.956;7.830;2022-09-13T03:21:00;2.90;;;1.10;;
2728;SDS011;1372;47.956;7.830;2022-09-13T03:23:44;2.20;;;1.33;;
2728;SDS011;1372;47.956;7.830;2022-09-13T03:26:30;1.60;;;1.50;;
2728;SDS011;1372;47.956;7.830;2022-09-13T03:29:12;1.13;;;1.07;;
2728;SDS011;1372;47.956;7.830;2022-09-13T03:31:55;2.17;;;1.07;;
2728;SDS011;1372;47.956;7.830;2022-09-13T03:34:55;1.47;;;1.37;;
2728;SDS011;1372;47.956;7.830;2022-09-13T03:37:32;3.37;;;1.37;;
2728;SDS011;1372;47.956;7.830;2022-09-13T03:40:10;1.40;;;1.30;;
2728;SDS011;1372;47.956;7.830;2022-09-13T03:42:44;2.13;;;1.13;;
2728;SDS011;1372;47.956;7.830;2022-09-13T03:45:18;1.60;;;1.50;;
2728;SDS011;1372;47.956;7.830;2022-09-13T03:47:51;1.97;;;1.43;;
2728;SDS011;1372;47.956;7.830;2022-09-13T03:50:22;1.40;;;1.30;;
2728;SDS011;1372;47.956;7.830;2022-09-13T03:52:56;2.97;;;1.53;;
2728;SDS011;1372;47.956;7.830;2022-09-13T03:55:30;1.67;;;1.37;;
2728;SDS011;1372;47.956;7.830;2022-09-13T03:57:59;1.30;;;1.27;;
2728;SDS011;1372;47.956;7.830;2022-09-13T04:00:28;1.93;;;1.40;;
2728;SDS011;1372;47.956;7.830;2022-09-13T04:02:58;1.77;;;1.67;;
2728;SDS011;1372;47.956;7.830;2022-09-13T04:05:29;1.83;;;1.67;;
2728;SDS011;1372;47.956;7.830;2022-09-13T04:07:59;4.47;;;1.43;;
2728;SDS011;1372;47.956;7.830;2022-09-13T04:10:31;1.83;;;1.40;;
2728;SDS011;1372;47.956;7.830;2022-09-13T04:13:01;1.63;;;1.53;;
2728;SDS011;1372;47.956;7.830;2022-09-13T04:15:30;1.77;;;1.67;;
2728;SDS011;1372;47.956;7.830;2022-09-13T04:18:01;2.13;;;1.60;;
2728;SDS011;1372;47.956;7.830;2022-09-13T04:20:33;1.70;;;1.60;;
2728;SDS011;1372;47.956;7.830;2022-09-13T04:23:02;1.80;;;1.70;;
2728;SDS011;1372;47.956;7.830;2022-09-13T04:25:33;1.90;;;1.50;;
2728;SDS011;1372;47.956;7.830;2022-09-13T04:28:06;1.70;;;1.60;;
2728;SDS011;1372;47.956;7.830;2022-09-13T04:30:35;1.60;;;1.50;;
2728;SDS011;1372;47.956;7.830;2022-09-13T04:33:08;2.10;;;1.57;;
2728;SDS011;1372;47.956;7.830;2022-09-13T04:35:36;2.63;;;1.37;;
2728;SDS011;1372;47.956;7.830;2022-09-13T04:38:26;1.40;;;1.30;;
2728;SDS011;1372;47.956;7.830;2022-09-13T04:41:01;1.83;;;1.40;;
2728;SDS011;1372;47.956;7.830;2022-09-13T04:43:30;1.40;;;1.30;;
2728;SDS011;1372;47.956;7.830;2022-09-13T04:45:59;2.53;;;1.40;;
2728;SDS011;1372;47.956;7.830;2022-09-13T04:48:28;1.57;;;1.47;;
2728;SDS011;1372;47.956;7.830;2022-09-13T04:51:00;1.50;;;1.40;;
2728;SDS011;1372;47.956;7.830;2022-09-13T04:53:53;1.60;;;1.33;;
2728;SDS011;1372;47.956;7.830;2022-09-13T04:56:27;1.63;;;1.53;;
2728;SDS011;1372;47.956;7.830;2022-09-13T04:58:56;1.90;;;1.80;;
2728;SDS011;1372;47.956;7.830;2022-09-13T05:01:24;2.03;;;1.47;;
2728;SDS011;1372;47.956;7.830;2022-09-13T05:03:56;4.33;;;1.77;;
2728;SDS011;1372;47.956;7.830;2022-09-13T05:06:27;4.60;;;2.07;;
2728;SDS011;1372;47.956;7.830;2022-09-13T05:08:56;2.00;;;1.80;;
2728;SDS011;1372;47.956;7.830;2022-09-13T05:11:25;1.70;;;1.60;;
2728;SDS011;1372;47.956;7.830;2022-09-13T05:13:57;2.87;;;1.83;;
2728;SDS011;1372;47.956;7.830;2022-09-13T05:16:28;1.90;;;1.80;;
2728;SDS011;1372;47.956;7.830;2022-09-13T05:19:01;2.40;;;1.40;;
2728;SDS011;1372;47.956;7.830;2022-09-13T05:21:32;1.83;;;1.50;;
2728;SDS011;1372;47.956;7.830;2022-09-13T05:24:02;1.67;;;1.57;;
2728;SDS011;1372;47.956;7.830;2022-09-13T05:27:07;2.43;;;1.60;;
2728;SDS011;1372;47.956;7.830;2022-09-13T05:32:32;2.03;;;1.80;;
2728;SDS011;1372;47.956;7.830;2022-09-13T05:35:08;1.70;;;1.60;;
2728;SDS011;1372;47.956;7.830;2022-09-13T05:37:36;3.17;;;2.13;;
2728;SDS011;1372;47.956;7.830;2022-09-13T05:40:06;2.07;;;1.70;;
2728;SDS011;1372;47.956;7.830;2022-09-13T05:42:58;1.90;;;1.80;;
2728;SDS011;1372;47.956;7.830;2022-09-13T05:45:27;2.43;;;2.20;;
2728;SDS011;1372;47.956;7.830;2022-09-13T05:47:56;2.17;;;2.00;;
2728;SDS011;1372;47.956;7.830;2022-09-13T05:50:25;1.87;;;1.70;;
2728;SDS011;1372;47.956;7.830;2022-09-13T05:53:14;2.30;;;2.10;;
2728;SDS011;1372;47.956;7.830;2022-09-13T05:55:46;4.60;;;1.70;;
2728;SDS011;1372;47.956;7.830;2022-09-13T05:58:16;3.20;;;2.07;;
2728;SDS011;1372;47.956;7.830;2022-09-13T06:00:51;1.70;;;1.60;;
2728;SDS011;1372;47.956;7.830;2022-09-13T06:03:21;2.37;;;2.07;;
2728;SDS011;1372;47.956;7.830;2022-09-13T06:05:53;2.10;;;1.90;;
2728;SDS011;1372;47.956;7.830;2022-09-13T06:08:42;3.33;;;3.03;;
2728;SDS011;1372;47.956;7.830;2022-09-13T06:11:13;4.47;;;4.07;;
2728;SDS011;1372;47.956;7.830;2022-09-13T06:13:43;4.53;;;4.13;;
2728;SDS011;1372;47.956;7.830;2022-09-13T06:16:32;2.37;;;2.17;;
2728;SDS011;1372;47.956;7.830;2022-09-13T06:19:01;2.37;;;2.17;;
2728;SDS011;1372;47.956;7.830;2022-09-13T06:21:31;2.33;;;2.10;;
2728;SDS011;1372;47.956;7.830;2022-09-13T06:24:01;2.00;;;1.80;;
2728;SDS011;1372;47.956;7.830;2022-09-13T06:26:33;1.60;;;1.50;;
2728;SDS011;1372;47.956;7.830;2022-09-13T06:29:03;3.83;;;1.63;;
2728;SDS011;1372;47.956;7.830;2022-09-13T06:31:34;2.20;;;2.00;;
2728;SDS011;1372;47.956;7.830;2022-09-13T06:34:04;3.90;;;2.30;;
2728;SDS011;1372;47.956;7.830;2022-09-13T06:36:35;5.03;;;1.77;;
2728;SDS011;1372;47.956;7.830;2022-09-13T06:39:03;1.90;;;1.80;;
2728;SDS011;1372;47.956;7.830;2022-09-13T06:41:32;1.73;;;1.63;;
2728;SDS011;1372;47.956;7.830;2022-09-13T06:44:03;1.90;;;1.80;;
2728;SDS011;1372;47.956;7.830;2022-09-13T06:46:34;1.63;;;1.50;;
2728;SDS011;1372;47.956;7.830;2022-09-13T06:49:04;1.70;;;1.43;;
2728;SDS011;1372;47.956;7.830;2022-09-13T06:51:34;2.83;;;1.43;;
2728;SDS011;1372;47.956;7.830;2022-09-13T06:54:04;1.80;;;1.70;;
2728;SDS011;1372;47.956;7.830;2022-09-13T06:56:33;1.67;;;1.57;;
2728;SDS011;1372;47.956;7.830;2022-09-13T06:59:06;1.53;;;1.43;;
2728;SDS011;1372;47.956;7.830;2022-09-13T07:01:56;1.47;;;1.37;;
2728;SDS011;1372;47.956;7.830;2022-09-13T07:04:25;1.83;;;1.60;;
2728;SDS011;1372;47.956;7.830;2022-09-13T07:06:59;1.90;;;1.80;;
2728;SDS011;1372;47.956;7.830;2022-09-13T07:09:27;1.67;;;1.57;;
2728;SDS011;1372;47.956;7.830;2022-09-13T07:11:56;2.90;;;1.80;;
2728;SDS011;1372;47.956;7.830;2022-09-13T07:14:33;2.03;;;1.93;;
2728;SDS011;1372;47.956;7.830;2022-09-13T07:17:02;1.73;;;1.63;;
2728;SDS011;1372;47.956;7.830;2022-09-13T07:19:32;3.80;;;1.70;;
2728;SDS011;1372;47.956;7.830;2022-09-13T07:22:00;1.87;;;1.60;;
2728;SDS011;1372;47.956;7.830;2022-09-13T07:24:30;1.80;;;1.70;;
2728;SDS011;1372;47.956;7.830;2022-09-13T07:26:59;2.10;;;2.00;;
2728;SDS011;1372;47.956;7.830;2022-09-13T07:29:28;3.30;;;1.77;;
2728;SDS011;1372;47.956;7.830;2022-09-13T07:31:58;3.63;;;2.20;;
2728;SDS011;1372;47.956;7.830;2022-09-13T07:34:47;1.80;;;1.60;;
2728;SDS011;1372;47.956;7.830;2022-09-13T07:37:16;3.37;;;1.90;;
2728;SDS011;1372;47.956;7.830;2022-09-13T07:39:48;2.30;;;2.10;;
2728;SDS011;1372;47.956;7.830;2022-09-13T07:42:20;2.47;;;2.00;;
2728;SDS011;1372;47.956;7.830;2022-09-13T07:45:09;2.60;;;2.40;;
2728;SDS011;1372;47.956;7.830;2022-09-13T07:47:39;2.13;;;1.93;;
2728;SDS011;1372;47.956;7.830;2022-09-13T07:50:08;2.40;;;1.97;;
2728;SDS011;1372;47.956;7.830;2022-09-13T07:52:37;4.03;;;1.93;;
2728;SDS011;1372;47.956;7.830;2022-09-13T07:55:06;2.00;;;1.90;;
2728;SDS011;1372;47.956;7.830;2022-09-13T07:57:38;2.23;;;2.03;;
2728;SDS011;1372;47.956;7.830;2022-09-13T08:00:07;5.03;;;2.23;;
2728;SDS011;1372;47.956;7.830;2022-09-13T08:02:37;3.07;;;2.20;;
2728;SDS011;1372;47.956;7.830;2022-09-13T08:05:07;2.60;;;2.40;;
2728;SDS011;1372;47.956;7.830;2022-09-13T08:07:36;2.80;;;2.60;;
2728;SDS011;1372;47.956;7.830;2022-09-13T08:10:08;5.57;;;4.17;;
2728;SDS011;1372;47.956;7.830;2022-09-13T08:12:38;8.80;;;5.50;;
2728;SDS011;1372;47.956;7.830;2022-09-13T08:15:07;5.27;;;3.50;;
2728;SDS011;1372;47.956;7.830;2022-09-13T08:17:37;2.37;;;2.13;;
2728;SDS011;1372;47.956;7.830;2022-09-13T08:20:08;2.40;;;2.20;;
2728;SDS011;1372;47.956;7.830;2022-09-13T08:22:37;3.33;;;2.60;;
2728;SDS011;1372;47.956;7.830;2022-09-13T08:25:08;3.60;;;2.40;;
2728;SDS011;1372;47.956;7.830;2022-09-13T08:27:56;2.03;;;1.80;;
2728;SDS011;1372;47.956;7.830;2022-09-13T08:30:25;2.97;;;1.50;;
2728;SDS011;1372;47.956;7.830;2022-09-13T08:32:58;1.90;;;1.80;;
2728;SDS011;1372;47.956;7.830;2022-09-13T08:35:29;2.10;;;1.90;;
2728;SDS011;1372;47.956;7.830;2022-09-13T08:37:59;1.87;;;1.70;;
2728;SDS011;1372;47.956;7.830;2022-09-13T08:40:49;2.30;;;1.97;;
2728;SDS011;1372;47.956;7.830;2022-09-13T08:43:43;3.27;;;1.90;;
2728;SDS011;1372;47.956;7.830;2022-09-13T08:46:20;2.30;;;2.10;;
2728;SDS011;1372;47.956;7.830;2022-09-13T08:48:57;2.67;;;2.00;;
2728;SDS011;1372;47.956;7.830;2022-09-13T08:51:34;1.97;;;1.87;;
2728;SDS011;1372;47.956;7.830;2022-09-13T08:54:08;2.03;;;1.80;;
2728;SDS011;1372;47.956;7.830;2022-09-13T08:57:00;1.87;;;1.77;;
2728;SDS011;1372;47.956;7.830;2022-09-13T08:59:39;1.87;;;1.67;;
2728;SDS011;1372;47.956;7.830;2022-09-13T09:02:23;1.77;;;1.67;;
2728;SDS011;1372;47.956;7.830;2022-09-13T09:05:17;2.00;;;1.90;;
2728;SDS011;1372;47.956;7.830;2022-09-13T09:07:52;4.03;;;1.83;;
2728;SDS011;1372;47.956;7.830;2022-09-13T09:10:29;2.07;;;1.97;;
2728;SDS011;1372;47.956;7.830;2022-09-13T09:13:03;1.80;;;1.70;;
2728;SDS011;1372;47.956;7.830;2022-09-13T09:15:36;2.27;;;1.90;;
2728;SDS011;1372;47.956;7.830;2022-09-13T09:18:10;1.97;;;1.87;;
2728;SDS011;1372;47.956;7.830;2022-09-13T09:20:46;2.47;;;1.90;;
2728;SDS011;1372;47.956;7.830;2022-09-13T09:23:21;4.97;;;3.23;;
2728;SDS011;1372;47.956;7.830;2022-09-13T09:26:14;2.30;;;2.10;;
2728;SDS011;1372;47.956;7.830;2022-09-13T09:28:45;2.73;;;2.53;;
2728;SDS011;1372;47.956;7.830;2022-09-13T09:31:18;2.37;;;2.17;;
2728;SDS011;1372;47.956;7.830;2022-09-13T09:33:57;3.33;;;2.37;;
2728;SDS011;1372;47.956;7.830;2022-09-13T09:36:40;3.30;;;2.80;;
2728;SDS011;1372;47.956;7.830;2022-09-13T09:39:21;3.30;;;2.77;;
2728;SDS011;1372;47.956;7.830;2022-09-13T09:41:58;3.17;;;2.87;;
2728;SDS011;1372;47.956;7.830;2022-09-13T09:44:29;3.10;;;2.77;;
2728;SDS011;1372;47.956;7.830;2022-09-13T09:47:00;2.33;;;2.17;;
2728;SDS011;1372;47.956;7.830;2022-09-13T09:49:36;3.90;;;2.57;;
2728;SDS011;1372;47.956;7.830;2022-09-13T09:52:29;3.30;;;2.07;;
2728;SDS011;1372;47.956;7.830;2022-09-13T09:55:11;2.63;;;2.33;;
2728;SDS011;1372;47.956;7.830;2022-09-13T09:57:53;2.30;;;2.10;;
2728;SDS011;1372;47.956;7.830;2022-09-13T10:00:24;2.00;;;1.90;;
2728;SDS011;1372;47.956;7.830;2022-09-13T10:02:56;4.33;;;2.50;;
2728;SDS011;1372;47.956;7.830;2022-09-13T10:05:28;3.10;;;2.30;;
2728;SDS011;1372;47.956;7.830;2022-09-13T10:07:59;2.50;;;2.10;;
2728;SDS011;1372;47.956;7.830;2022-09-13T10:10:34;2.20;;;2.00;;
2728;SDS011;1372;47.956;7.830;2022-09-13T10:13:28;2.10;;;2.00;;
2728;SDS011;1372;47.956;7.830;2022-09-13T10:15:58;2.53;;;2.07;;
2728;SDS011;1372;47.956;7.830;2022-09-13T10:18:29;2.40;;;2.17;;
2728;SDS011;1372;47.956;7.830;2022-09-13T10:21:20;2.53;;;2.33;;
2728;SDS011;1372;47.956;7.830;2022-09-13T10:24:15;2.33;;;2.23;;
2728;SDS011;1372;47.956;7.830;2022-09-13T10:26:48;2.90;;;2.40;;
2728;SDS011;1372;47.956;7.830;2022-09-13T10:29:17;2.13;;;2.03;;
2728;SDS011;1372;47.956;7.830;2022-09-13T10:31:46;2.60;;;2.40;;
2728;SDS011;1372;47.956;7.830;2022-09-13T10:34:22;2.13;;;2.03;;
2728;SDS011;1372;47.956;7.830;2022-09-13T10:36:55;2.20;;;2.00;;
2728;SDS011;1372;47.956;7.830;2022-09-13T10:39:28;2.30;;;2.20;;
2728;SDS011;1372;47.956;7.830;2022-09-13T10:42:21;2.00;;;1.90;;
2728;SDS011;1372;47.956;7.830;2022-09-13T10:44:53;2.23;;;2.10;;
2728;SDS011;1372;47.956;7.830;2022-09-13T10:47:25;2.00;;;1.90;;
2728;SDS011;1372;47.956;7.830;2022-09-13T10:50:17;2.10;;;1.90;;
2728;SDS011;1372;47.956;7.830;2022-09-13T10:52:48;2.57;;;2.07;;
2728;SDS011;1372;47.956;7.830;2022-09-13T10:58:14;2.03;;;1.93;;
2728;SDS011;1372;47.956;7.830;2022-09-13T11:01:02;2.00;;;1.63;;
2728;SDS011;1372;47.956;7.830;2022-09-13T11:07:41;2.20;;;2.00;;
2728;SDS011;1372;47.956;7.830;2022-09-13T11:11:01;2.03;;;1.83;;
2728;SDS011;1372;47.956;7.830;2022-09-13T11:13:50;1.90;;;1.80;;
2728;SDS011;1372;47.956;7.830;2022-09-13T11:16:41;1.90;;;1.80;;
2728;SDS011;1372;47.956;7.830;2022-09-13T11:19:35;3.77;;;1.70;;
2728;SDS011;1372;47.956;7.830;2022-09-13T11:22:33;1.93;;;1.80;;
2728;SDS011;1372;47.956;7.830;2022-09-13T11:25:29;1.60;;;1.50;;
2728;SDS011;1372;47.956;7.830;2022-09-13T11:28:19;1.63;;;1.53;;
2728;SDS011;1372;47.956;7.830;2022-09-13T11:31:03;2.03;;;1.67;;
2728;SDS011;1372;47.956;7.830;2022-09-13T11:34:05;1.00;;;1.00;;
2728;SDS011;1372;47.956;7.830;2022-09-13T11:40:19;1.87;;;1.77;;
2728;SDS011;1372;47.956;7.830;2022-09-13T11:43:21;1.77;;;1.60;;
2728;SDS011;1372;47.956;7.830;2022-09-13T11:46:41;1.90;;;1.27;;
2728;SDS011;1372;47.956;7.830;2022-09-13T11:49:22;3.93;;;1.83;;
2728;SDS011;1372;47.956;7.830;2022-09-13T11:52:11;1.80;;;1.70;;
2728;SDS011;1372;47.956;7.830;2022-09-13T11:54:58;1.67;;;1.57;;
2728;SDS011;1372;47.956;7.830;2022-09-13T11:57:40;1.60;;;1.50;;
2728;SDS011;1372;47.956;7.830;2022-09-13T12:00:17;2.50;;;1.77;;
2728;SDS011;1372;47.956;7.830;2022-09-13T12:03:15;1.63;;;1.53;;
2728;SDS011;1372;47.956;7.830;2022-09-13T12:05:51;1.60;;;1.50;;
2728;SDS011;1372;47.956;7.830;2022-09-13T12:08:25;1.37;;;1.20;;
2728;SDS011;1372;47.956;7.830;2022-09-13T12:11:01;1.40;;;1.30;;
2728;SDS011;1372;47.956;7.830;2022-09-13T12:13:40;3.83;;;1.77;;
2728;SDS011;1372;47.956;7.830;2022-09-13T12:16:14;2.30;;;2.10;;
2728;SDS011;1372;47.956;7.830;2022-09-13T12:18:53;2.37;;;1.60;;
2728;SDS011;1372;47.956;7.830;2022-09-13T12:21:29;1.40;;;1.30;;
2728;SDS011;1372;47.956;7.830;2022-09-13T12:24:04;2.50;;;1.40;;
2728;SDS011;1372;47.956;7.830;2022-09-13T12:26:42;1.50;;;1.37;;
2728;SDS011;1372;47.956;7.830;2022-09-13T12:29:17;1.40;;;1.30;;
2728;SDS011;1372;47.956;7.830;2022-09-13T12:31:53;1.13;;;1.10;;
2728;SDS011;1372;47.956;7.830;2022-09-13T12:34:31;1.23;;;1.20;;
2728;SDS011;1372;47.956;7.830;2022-09-13T12:37:09;1.77;;;1.67;;
2728;SDS011;1372;47.956;7.830;2022-09-13T12:39:58;1.60;;;1.50;;
2728;SDS011;1372;47.956;7.830;2022-09-13T12:42:57;2.17;;;1.50;;
2728;SDS011;1372;47.956;7.830;2022-09-13T12:46:20;1.33;;;1.23;;
2728;SDS011;1372;47.956;7.830;2022-09-13T12:49:15;1.23;;;1.13;;
2728;SDS011;1372;47.956;7.830;2022-09-13T12:52:24;1.67;;;1.57;;
2728;SDS011;1372;47.956;7.830;2022-09-13T12:58:26;1.63;;;1.37;;
2728;SDS011;1372;47.956;7.830;2022-09-13T13:01:26;1.50;;;1.40;;
2728;SDS011;1372;47.956;7.830;2022-09-13T13:03:58;2.30;;;2.10;;
2728;SDS011;1372;47.956;7.830;2022-09-13T13:06:33;1.40;;;1.30;;
2728;SDS011;1372;47.956;7.830;2022-09-13T13:09:18;2.67;;;2.47;;
2728;SDS011;1372;47.956;7.830;2022-09-13T13:11:55;2.20;;;2.00;;
2728;SDS011;1372;47.956;7.830;2022-09-13T13:14:27;3.07;;;2.00;;
2728;SDS011;1372;47.956;7.830;2022-09-13T13:23:33;2.20;;;2.00;;
2728;SDS011;1372;47.956;7.830;2022-09-13T13:29:17;2.00;;;1.90;;
2728;SDS011;1372;47.956;7.830;2022-09-13T13:32:07;2.07;;;1.80;;
2728;SDS011;1372;47.956;7.830;2022-09-13T13:34:40;2.63;;;2.30;;
2728;SDS011;1372;47.956;7.830;2022-09-13T13:37:32;2.30;;;1.80;;
2728;SDS011;1372;47.956;7.830;2022-09-13T13:40:11;2.33;;;2.10;;
2728;SDS011;1372;47.956;7.830;2022-09-13T13:42:51;2.43;;;2.23;;
2728;SDS011;1372;47.956;7.830;2022-09-13T13:45:58;1.60;;;1.50;;
2728;SDS011;1372;47.956;7.830;2022-09-13T13:48:53;2.13;;;1.80;;
2728;SDS011;1372;47.956;7.830;2022-09-13T13:51:23;1.87;;;1.77;;
2728;SDS011;1372;47.956;7.830;2022-09-13T13:53:56;1.93;;;1.83;;
2728;SDS011;1372;47.956;7.830;2022-09-13T13:56:33;1.90;;;1.80;;
2728;SDS011;1372;47.956;7.830;2022-09-13T13:59:24;4.67;;;2.60;;
2728;SDS011;1372;47.956;7.830;2022-09-13T14:02:14;2.60;;;2.03;;
2728;SDS011;1372;47.956;7.830;2022-09-13T14:07:59;1.80;;;1.70;;
2728;SDS011;1372;47.956;7.830;2022-09-13T14:11:10;3.30;;;2.30;;
2728;SDS011;1372;47.956;7.830;2022-09-13T14:13:55;1.60;;;1.50;;
2728;SDS011;1372;47.956;7.830;2022-09-13T14:16:41;2.20;;;2.00;;
2728;SDS011;1372;47.956;7.830;2022-09-13T14:19:25;2.20;;;2.00;;
2728;SDS011;1372;47.956;7.830;2022-09-13T14:22:04;2.30;;;2.10;;
2728;SDS011;1372;47.956;7.830;2022-09-13T14:24:46;2.10;;;1.90;;
2728;SDS011;1372;47.956;7.830;2022-09-13T14:27:17;2.70;;;2.20;;
2728;SDS011;1372;47.956;7.830;2022-09-13T14:29:49;1.90;;;1.67;;
2728;SDS011;1372;47.956;7.830;2022-09-13T14:32:23;2.20;;;1.63;;
2728;SDS011;1372;47.956;7.830;2022-09-13T14:35:02;2.60;;;1.83;;
2728;SDS011;1372;47.956;7.830;2022-09-13T14:37:50;2.13;;;1.90;;
2728;SDS011;1372;47.956;7.830;2022-09-13T14:40:21;2.00;;;1.90;;
2728;SDS011;1372;47.956;7.830;2022-09-13T14:42:53;1.80;;;1.70;;
2728;SDS011;1372;47.956;7.830;2022-09-13T14:45:42;2.77;;;2.37;;
2728;SDS011;1372;47.956;7.830;2022-09-13T14:48:16;4.60;;;2.33;;
2728;SDS011;1372;47.956;7.830;2022-09-13T14:50:50;2.30;;;1.70;;
2728;SDS011;1372;47.956;7.830;2022-09-13T14:53:28;2.90;;;2.33;;
2728;SDS011;1372;47.956;7.830;2022-09-13T14:56:01;2.03;;;1.93;;
2728;SDS011;1372;47.956;7.830;2022-09-13T14:58:36;2.07;;;1.87;;
2728;SDS011;1372;47.956;7.830;2022-09-13T15:01:12;1.67;;;1.57;;
2728;SDS011;1372;47.956;7.830;2022-09-13T15:03:46;2.10;;;1.77;;
2728;SDS011;1372;47.956;7.830;2022-09-13T15:06:19;4.40;;;1.90;;
2728;SDS011;1372;47.956;7.830;2022-09-13T15:08:55;2.90;;;2.23;;
2728;SDS011;1372;47.956;7.830;2022-09-13T15:11:29;1.83;;;1.73;;
2728;SDS011;1372;47.956;7.830;2022-09-13T15:14:09;2.53;;;2.40;;
2728;SDS011;1372;47.956;7.830;2022-09-13T15:20:10;2.53;;;2.33;;
2728;SDS011;1372;47.956;7.830;2022-09-13T15:22:40;2.53;;;1.90;;
2728;SDS011;1372;47.956;7.830;2022-09-13T15:25:16;2.10;;;1.90;;
2728;SDS011;1372;47.956;7.830;2022-09-13T15:27:50;2.30;;;2.10;;
2728;SDS011;1372;47.956;7.830;2022-09-13T15:30:22;2.30;;;2.10;;
2728;SDS011;1372;47.956;7.830;2022-09-13T15:33:27;2.07;;;1.90;;
2728;SDS011;1372;47.956;7.830;2022-09-13T15:36:24;2.30;;;2.07;;
2728;SDS011;1372;47.956;7.830;2022-09-13T15:39:00;2.10;;;2.00;;
2728;SDS011;1372;47.956;7.830;2022-09-13T15:41:32;2.90;;;2.17;;
2728;SDS011;1372;47.956;7.830;2022-09-13T15:44:03;2.30;;;2.17;;
2728;SDS011;1372;47.956;7.830;2022-09-13T15:46:36;3.97;;;2.50;;
2728;SDS011;1372;47.956;7.830;2022-09-13T15:49:33;3.00;;;2.40;;
2728;SDS011;1372;47.956;7.830;2022-09-13T15:52:04;2.80;;;2.20;;
2728;SDS011;1372;47.956;7.830;2022-09-13T15:54:35;2.30;;;2.10;;
2728;SDS011;1372;47.956;7.830;2022-09-13T15:57:27;3.40;;;2.40;;
2728;SDS011;1372;47.956;7.830;2022-09-13T16:00:02;3.93;;;2.30;;
2728;SDS011;1372;47.956;7.830;2022-09-13T16:02:37;2.40;;;2.10;;
2728;SDS011;1372;47.956;7.830;2022-09-13T16:05:08;3.07;;;2.40;;
2728;SDS011;1372;47.956;7.830;2022-09-13T16:08:04;4.30;;;3.90;;
2728;SDS011;1372;47.956;7.830;2022-09-13T16:10:33;3.73;;;3.43;;
2728;SDS011;1372;47.956;7.830;2022-09-13T16:13:04;4.57;;;3.93;;
2728;SDS011;1372;47.956;7.830;2022-09-13T16:15:33;3.90;;;2.97;;
2728;SDS011;1372;47.956;7.830;2022-09-13T16:18:02;2.57;;;2.37;;
2728;SDS011;1372;47.956;7.830;2022-09-13T16:20:31;2.43;;;2.23;;
2728;SDS011;1372;47.956;7.830;2022-09-13T16:23:00;2.60;;;2.40;;
2728;SDS011;1372;47.956;7.830;2022-09-13T16:25:33;3.40;;;3.10;;
2728;SDS011;1372;47.956;7.830;2022-09-13T16:28:17;3.20;;;3.00;;
2728;SDS011;1372;47.956;7.830;2022-09-13T16:31:06;2.77;;;2.57;;
2728;SDS011;1372;47.956;7.830;2022-09-13T16:33:38;4.27;;;3.27;;
2728;SDS011;1372;47.956;7.830;2022-09-13T16:36:16;2.90;;;2.70;;
2728;SDS011;1372;47.956;7.830;2022-09-13T16:38:45;5.37;;;4.27;;
2728;SDS011;1372;47.956;7.830;2022-09-13T16:41:16;6.43;;;4.33;;
2728;SDS011;1372;47.956;7.830;2022-09-13T16:43:45;4.47;;;3.20;;
2728;SDS011;1372;47.956;7.830;2022-09-13T16:46:14;3.17;;;2.97;;
2728;SDS011;1372;47.956;7.830;2022-09-13T16:48:55;4.80;;;2.60;;
2728;SDS011;1372;47.956;7.830;2022-09-13T16:51:45;3.37;;;3.10;;
2728;SDS011;1372;47.956;7.830;2022-09-13T16:59:17;2.80;;;2.60;;
2728;SDS011;1372;47.956;7.830;2022-09-13T17:01:45;2.33;;;2.20;;